^^
Grace C. Lehan Memorial Weather Station Historical Data
Daily Summary for February 27, 2021 Units:  Both    English   Metric
Daily Weekly Monthly Yearly
  High: Low: Average:
Temperature: 94.7 °F /  34.8 °C 74.4 °F /  23.6 °C 83.3 °F /  28.5 °C
Dew Point: 77.3 °F /  25.2 °C 69.7 °F /  20.9 °C 73.6 °F /  23.1 °C
Humidity: 94% 49.5% 74%
Wind Speed: 3.9mph /  6.3km/h - 0.4mph /  0.6km/h
Wind Gust: 14mph /  22.5km/h - -
Wind- - SW
Pressure: 30.12 in /  1019.9 hPa 30.00 in /  1015.8 hPa -
Precipitation: 0.00 in /  0 mm    
 
 
Tabular Data for February 27, 2021
Time Temperature Dew Point Pressure Wind Wind Speed Wind Gust Humidity Rainfall Rate (Hourly) solar
00:09 79.9 °F /  26.6 °C 74.6 °F /  23.7 °C 30.02in /  1016.5hPa Calm     84% 0.00in /  0mm 0 W/m2
00:14 79.8 °F /  26.6 °C 74.6 °F /  23.7 °C 30.02in /  1016.5hPa Calm     84% 0.00in /  0mm 0 W/m2
00:19 79.8 °F /  26.6 °C 74.5 °F /  23.6 °C 30.02in /  1016.5hPa Calm     84% 0.00in /  0mm 0 W/m2
00:24 79.8 °F /  26.6 °C 74.5 °F /  23.6 °C 30.01in /  1016.1hPa Calm     84% 0.00in /  0mm 0 W/m2
00:29 79.7 °F /  26.5 °C 74.6 °F /  23.7 °C 30.01in /  1016.1hPa Calm     84.3% 0.00in /  0mm 0 W/m2
00:34 79.6 °F /  26.4 °C 74.7 °F /  23.7 °C 30.01in /  1016.1hPa Calm     85% 0.00in /  0mm 0 W/m2
00:39 79.6 °F /  26.4 °C 74.7 °F /  23.7 °C 30.01in /  1016.1hPa Calm     85% 0.00in /  0mm 0 W/m2
00:44 79.5 °F /  26.4 °C 74.6 °F /  23.7 °C 30.01in /  1016.1hPa Calm     85% 0.00in /  0mm 0 W/m2
00:49 79.4 °F /  26.3 °C 74.5 °F /  23.6 °C 30.01in /  1016.1hPa Calm     85% 0.00in /  0mm 0 W/m2
00:54 79.3 °F /  26.3 °C 74.5 °F /  23.6 °C 30.01in /  1016.1hPa Calm     85.3% 0.00in /  0mm 0 W/m2
00:59 79.2 °F /  26.2 °C 74.7 °F /  23.7 °C 30.01in /  1016.1hPa Calm     86% 0.00in /  0mm 0 W/m2
01:04 79.1 °F /  26.2 °C 74.6 °F /  23.7 °C 30.01in /  1016.1hPa Calm     86% 0.00in /  0mm 0 W/m2
01:09 79 °F /  26.1 °C 74.5 °F /  23.6 °C 30.02in /  1016.5hPa Calm     86% 0.00in /  0mm 0 W/m2
01:14 78.9 °F /  26.1 °C 74.3 °F /  23.5 °C 30.02in /  1016.5hPa Calm     86% 0.00in /  0mm 0 W/m2
01:19 78.8 °F /  26 °C 74.2 °F /  23.4 °C 30.02in /  1016.5hPa Calm     86% 0.00in /  0mm 0 W/m2
01:24 78.7 °F /  25.9 °C 74.5 °F /  23.6 °C 30.01in /  1016.1hPa Calm     87% 0.00in /  0mm 0 W/m2
01:29 78.6 °F /  25.9 °C 74.4 °F /  23.6 °C 30.01in /  1016.1hPa Calm     87% 0.00in /  0mm 0 W/m2
01:34 78.5 °F /  25.8 °C 74.3 °F /  23.5 °C 30.01in /  1016.1hPa Calm     87% 0.00in /  0mm 0 W/m2
01:39 78.4 °F /  25.8 °C 74.2 °F /  23.4 °C 30.01in /  1016.1hPa Calm     87% 0.00in /  0mm 0 W/m2
01:44 78.3 °F /  25.7 °C 74.1 °F /  23.4 °C 30.01in /  1016.1hPa Calm     87% 0.00in /  0mm 0 W/m2
01:49 78.1 °F /  25.6 °C 74.1 °F /  23.4 °C 30.01in /  1016.1hPa Calm     87.3% 0.00in /  0mm 0 W/m2
01:54 78 °F /  25.6 °C 74.2 °F /  23.4 °C 30.00in /  1015.8hPa Calm     88% 0.00in /  0mm 0 W/m2
01:59 77.9 °F /  25.5 °C 74.1 °F /  23.4 °C 30.00in /  1015.8hPa Calm     88% 0.00in /  0mm 0 W/m2
02:04 77.8 °F /  25.4 °C 74 °F /  23.3 °C 30.01in /  1016.1hPa Calm     88% 0.00in /  0mm 0 W/m2
02:09 77.8 °F /  25.4 °C 73.9 °F /  23.3 °C 30.01in /  1016.1hPa Calm     88% 0.00in /  0mm 0 W/m2
02:14 77.7 °F /  25.4 °C 73.8 °F /  23.2 °C 30.00in /  1015.8hPa Calm     88% 0.00in /  0mm 0 W/m2
02:19 77.6 °F /  25.3 °C 73.8 °F /  23.2 °C 30.00in /  1015.8hPa Calm     88% 0.00in /  0mm 0 W/m2
02:24 77.5 °F /  25.3 °C 73.8 °F /  23.2 °C 30.00in /  1015.8hPa Calm     88.4% 0.00in /  0mm 0 W/m2
02:29 77.4 °F /  25.2 °C 73.9 °F /  23.3 °C 30.00in /  1015.8hPa Calm     89% 0.00in /  0mm 0 W/m2
02:34 77.4 °F /  25.2 °C 73.9 °F /  23.3 °C 30.00in /  1015.8hPa Calm     89% 0.00in /  0mm 0 W/m2
02:39 77.3 °F /  25.2 °C 73.8 °F /  23.2 °C 30.00in /  1015.8hPa Calm     89% 0.00in /  0mm 0 W/m2
02:44 77.2 °F /  25.1 °C 73.8 °F /  23.2 °C 30.00in /  1015.8hPa Calm     89% 0.00in /  0mm 0 W/m2
02:49 77.2 °F /  25.1 °C 73.7 °F /  23.2 °C 30.00in /  1015.8hPa Calm     89% 0.00in /  0mm 0 W/m2
02:54 77.1 °F /  25.1 °C 73.6 °F /  23.1 °C 30.01in /  1016.1hPa Calm     89% 0.00in /  0mm 0 W/m2
02:59 77 °F /  25 °C 73.5 °F /  23.1 °C 30.01in /  1016.1hPa Calm     89% 0.00in /  0mm 0 W/m2
03:04 76.9 °F /  24.9 °C 73.5 °F /  23.1 °C 30.01in /  1016.1hPa Calm     89% 0.00in /  0mm 0 W/m2
03:09 76.9 °F /  24.9 °C 73.8 °F /  23.2 °C 30.01in /  1016.1hPa Calm     90% 0.00in /  0mm 0 W/m2
03:14 76.9 °F /  24.9 °C 73.8 °F /  23.2 °C 30.01in /  1016.1hPa Calm     90% 0.00in /  0mm 0 W/m2
03:19 76.9 °F /  24.9 °C 73.7 °F /  23.2 °C 30.01in /  1016.1hPa Calm     90% 0.00in /  0mm 0 W/m2
03:24 76.8 °F /  24.9 °C 73.7 °F /  23.2 °C 30.01in /  1016.1hPa Calm     90% 0.00in /  0mm 0 W/m2
03:29 76.8 °F /  24.9 °C 73.7 °F /  23.2 °C 30.01in /  1016.1hPa Calm     90% 0.00in /  0mm 0 W/m2
03:34 76.7 °F /  24.8 °C 73.6 °F /  23.1 °C 30.01in /  1016.1hPa Calm     90% 0.00in /  0mm 0 W/m2
03:39 76.7 °F /  24.8 °C 73.6 °F /  23.1 °C 30.01in /  1016.1hPa Calm     90% 0.00in /  0mm 0 W/m2
03:44 76.7 °F /  24.8 °C 73.5 °F /  23.1 °C 30.01in /  1016.1hPa Calm     90% 0.00in /  0mm 0 W/m2
03:49 76.6 °F /  24.8 °C 73.4 °F /  23 °C 30.00in /  1015.8hPa Calm     90% 0.00in /  0mm 0 W/m2
03:54 76.5 °F /  24.7 °C 73.4 °F /  23 °C 30.00in /  1015.8hPa Calm     90% 0.00in /  0mm 0 W/m2
03:59 76.5 °F /  24.7 °C 73.4 °F /  23 °C 30.00in /  1015.8hPa Calm     90.3% 0.00in /  0mm 0 W/m2
04:09 76.4 °F /  24.7 °C 73.5 °F /  23.1 °C 30.01in /  1016.1hPa Calm     91% 0.00in /  0mm 0 W/m2
04:14 76.3 °F /  24.6 °C 73.5 °F /  23.1 °C 30.01in /  1016.1hPa Calm     91% 0.00in /  0mm 0 W/m2
04:19 76.3 °F /  24.6 °C 73.4 °F /  23 °C 30.01in /  1016.1hPa Calm     91% 0.00in /  0mm 0 W/m2
04:24 76.2 °F /  24.6 °C 73.4 °F /  23 °C 30.01in /  1016.1hPa Calm     91% 0.00in /  0mm 0 W/m2
04:29 76.2 °F /  24.6 °C 73.4 °F /  23 °C 30.01in /  1016.1hPa Calm     91% 0.00in /  0mm 0 W/m2
04:34 76.1 °F /  24.5 °C 73.3 °F /  22.9 °C 30.00in /  1015.8hPa Calm     91% 0.00in /  0mm 0 W/m2
04:39 76 °F /  24.4 °C 73.2 °F /  22.9 °C 30.00in /  1015.8hPa Calm     91% 0.00in /  0mm 0 W/m2
04:44 76 °F /  24.4 °C 73.2 °F /  22.9 °C 30.00in /  1015.8hPa Calm     91% 0.00in /  0mm 0 W/m2
04:49 75.9 °F /  24.4 °C 73.1 °F /  22.8 °C 30.00in /  1015.8hPa Calm     91% 0.00in /  0mm 0 W/m2
04:54 75.8 °F /  24.3 °C 73 °F /  22.8 °C 30.00in /  1015.8hPa Calm     91% 0.00in /  0mm 0 W/m2
04:59 75.7 °F /  24.3 °C 72.9 °F /  22.7 °C 30.00in /  1015.8hPa Calm     91% 0.00in /  0mm 0 W/m2
05:04 75.6 °F /  24.2 °C 72.8 °F /  22.7 °C 30.00in /  1015.8hPa Calm     91% 0.00in /  0mm 0 W/m2
05:09 75.5 °F /  24.2 °C 72.7 °F /  22.6 °C 30.00in /  1015.8hPa Calm     91% 0.00in /  0mm 0 W/m2
05:14 75.5 °F /  24.2 °C 72.7 °F /  22.6 °C 30.00in /  1015.8hPa Calm     91% 0.00in /  0mm 0 W/m2
05:19 75.4 °F /  24.1 °C 72.6 °F /  22.6 °C 30.00in /  1015.8hPa Calm     91% 0.00in /  0mm 0 W/m2
05:24 75.3 °F /  24.1 °C 72.5 °F /  22.5 °C 30.00in /  1015.8hPa Calm     91% 0.00in /  0mm 0 W/m2
05:29 75.2 °F /  24 °C 72.4 °F /  22.4 °C 30.00in /  1015.8hPa Calm     91% 0.00in /  0mm 0 W/m2
05:34 75.1 °F /  23.9 °C 72.6 °F /  22.6 °C 30.00in /  1015.8hPa Calm     91.9% 0.00in /  0mm 0 W/m2
05:39 75.1 °F /  23.9 °C 72.6 °F /  22.6 °C 30.00in /  1015.8hPa Calm     92% 0.00in /  0mm 0 W/m2
05:44 74.9 °F /  23.8 °C 72.5 °F /  22.5 °C 30.00in /  1015.8hPa Calm     92% 0.00in /  0mm 0 W/m2
05:49 74.9 °F /  23.8 °C 72.4 °F /  22.4 °C 30.01in /  1016.1hPa Calm     92% 0.00in /  0mm 0 W/m2
05:54 74.8 °F /  23.8 °C 72.3 °F /  22.4 °C 30.01in /  1016.1hPa Calm     92% 0.00in /  0mm 0 W/m2
05:59 74.7 °F /  23.7 °C 72.3 °F /  22.4 °C 30.01in /  1016.1hPa Calm     92% 0.00in /  0mm 0 W/m2
06:04 74.6 °F /  23.7 °C 72.2 °F /  22.3 °C 30.01in /  1016.1hPa Calm     92% 0.00in /  0mm 0 W/m2
06:09 74.6 °F /  23.7 °C 72.1 °F /  22.3 °C 30.01in /  1016.1hPa Calm     92% 0.00in /  0mm 0 W/m2
06:14 74.5 °F /  23.6 °C 72 °F /  22.2 °C 30.01in /  1016.1hPa Calm     92% 0.00in /  0mm 0 W/m2
06:19 74.4 °F /  23.6 °C 71.9 °F /  22.2 °C 30.01in /  1016.1hPa Calm     92% 0.00in /  0mm 7 W/m2
06:24 74.4 °F /  23.6 °C 72.2 °F /  22.3 °C 30.01in /  1016.1hPa Calm     92.9% 0.00in /  0mm 11 W/m2
06:29 74.4 °F /  23.6 °C 72.3 °F /  22.4 °C 30.01in /  1016.1hPa Calm     93% 0.00in /  0mm 14 W/m2
06:34 74.4 °F /  23.6 °C 72.2 °F /  22.3 °C 30.01in /  1016.1hPa Calm     93% 0.00in /  0mm 19 W/m2
06:39 74.4 °F /  23.6 °C 72.2 °F /  22.3 °C 30.01in /  1016.1hPa Calm     93% 0.00in /  0mm 26 W/m2
06:44 74.4 °F /  23.6 °C 72.3 °F /  22.4 °C 30.01in /  1016.1hPa Calm     93% 0.00in /  0mm 35 W/m2
06:49 74.4 °F /  23.6 °C 72.3 °F /  22.4 °C 30.02in /  1016.5hPa Calm     93% 0.00in /  0mm 47 W/m2
06:54 74.5 °F /  23.6 °C 72.4 °F /  22.4 °C 30.02in /  1016.5hPa Calm     93% 0.00in /  0mm 86 W/m2
06:59 74.7 °F /  23.7 °C 72.7 °F /  22.6 °C 30.02in /  1016.5hPa Calm     93.6% 0.00in /  0mm 95 W/m2
07:04 75.1 °F /  23.9 °C 73.2 °F /  22.9 °C 30.02in /  1016.5hPa Calm     94% 0.00in /  0mm 105 W/m2
07:09 75.5 °F /  24.2 °C 73.7 °F /  23.2 °C 30.02in /  1016.5hPa Calm     94% 0.00in /  0mm 116 W/m2
07:14 75.9 °F /  24.4 °C 74.1 °F /  23.4 °C 30.02in /  1016.5hPa Calm     94% 0.00in /  0mm 121 W/m2
07:19 76.5 °F /  24.7 °C 74.5 °F /  23.6 °C 30.02in /  1016.5hPa Calm     93.7% 0.00in /  0mm 84 W/m2
07:24 76.9 °F /  24.9 °C 74.6 °F /  23.7 °C 30.02in /  1016.5hPa Calm     92.5% 0.00in /  0mm 77 W/m2
07:29 77.1 °F /  25.1 °C 74.4 °F /  23.6 °C 30.02in /  1016.5hPa Calm     91.4% 0.00in /  0mm 74 W/m2
07:34 77.4 °F /  25.2 °C 74.5 °F /  23.6 °C 30.02in /  1016.5hPa Calm     91% 0.00in /  0mm 60 W/m2
07:39 77.6 °F /  25.3 °C 74.6 °F /  23.7 °C 30.02in /  1016.5hPa Calm     90.4% 0.00in /  0mm 53 W/m2
07:44 77.8 °F /  25.4 °C 74.6 °F /  23.7 °C 30.02in /  1016.5hPa Calm     90% 0.00in /  0mm 54 W/m2
07:49 78 °F /  25.6 °C 74.5 °F /  23.6 °C 30.02in /  1016.5hPa Calm     89.2% 0.00in /  0mm 76 W/m2
07:54 78.1 °F /  25.6 °C 74.6 °F /  23.7 °C 30.02in /  1016.5hPa Calm     89% 0.00in /  0mm 81 W/m2
07:59 78.2 °F /  25.7 °C 74.4 °F /  23.6 °C 30.03in /  1016.8hPa WNW 0.1mph /  0.2km/h 1mph /  1.6km/h 88.1% 0.00in /  0mm 84 W/m2
08:09 78.4 °F /  25.8 °C 74.2 °F /  23.4 °C 30.03in /  1016.8hPa Calm     87% 0.00in /  0mm 169 W/m2
08:14 78.6 °F /  25.9 °C 74.4 °F /  23.6 °C 30.03in /  1016.8hPa Calm     87% 0.00in /  0mm 281 W/m2
08:19 78.9 °F /  26.1 °C 74.7 °F /  23.7 °C 30.03in /  1016.8hPa Calm     87% 0.00in /  0mm 288 W/m2
08:24 79.5 °F /  26.4 °C 75.1 °F /  23.9 °C 30.03in /  1016.8hPa Calm   1mph /  1.6km/h 86.4% 0.00in /  0mm 299 W/m2
08:29 80.2 °F /  26.8 °C 75.3 °F /  24.1 °C 30.03in /  1016.8hPa NW 0.1mph /  0.2km/h 2mph /  3.2km/h 84.9% 0.00in /  0mm 325 W/m2
08:34 81 °F /  27.2 °C 75.3 °F /  24.1 °C 30.03in /  1016.8hPa Calm   2mph /  3.2km/h 83% 0.00in /  0mm 343 W/m2
08:39 81.7 °F /  27.6 °C 75.5 °F /  24.2 °C 30.02in /  1016.5hPa NW 0.1mph /  0.2km/h 4mph /  6.4km/h 81.6% 0.00in /  0mm 353 W/m2
08:44 82.4 °F /  28 °C 75.9 °F /  24.4 °C 30.02in /  1016.5hPa NW 0.1mph /  0.2km/h 4mph /  6.4km/h 80.6% 0.00in /  0mm 374 W/m2
08:49 83.1 °F /  28.4 °C 76.1 °F /  24.5 °C 30.02in /  1016.5hPa Calm   4mph /  6.4km/h 79.4% 0.00in /  0mm 392 W/m2
08:54 83.7 °F /  28.7 °C 76.1 °F /  24.5 °C 30.03in /  1016.8hPa Calm   4mph /  6.4km/h 78% 0.00in /  0mm 410 W/m2
08:59 84.4 °F /  29.1 °C 76.3 °F /  24.6 °C 30.02in /  1016.5hPa NW 0.3mph /  0.5km/h 4mph /  6.4km/h 77% 0.00in /  0mm 424 W/m2
09:04 85 °F /  29.4 °C 76.3 °F /  24.6 °C 30.02in /  1016.5hPa NW 0.9mph /  1.4km/h 5mph /  8km/h 75.3% 0.00in /  0mm 443 W/m2
09:09 85.6 °F /  29.8 °C 76.6 °F /  24.8 °C 30.02in /  1016.5hPa NW 0.3mph /  0.5km/h 5mph /  8km/h 74.5% 0.00in /  0mm 457 W/m2
09:14 86.2 °F /  30.1 °C 76.9 °F /  24.9 °C 30.02in /  1016.5hPa NW 0.1mph /  0.2km/h 5mph /  8km/h 74% 0.00in /  0mm 471 W/m2
09:19 86.7 °F /  30.4 °C 76.9 °F /  24.9 °C 30.03in /  1016.8hPa NW 1.4mph /  2.3km/h 6mph /  9.7km/h 72.6% 0.00in /  0mm 487 W/m2
09:24 87 °F /  30.6 °C 76.8 °F /  24.9 °C 30.03in /  1016.8hPa NNW 0.1mph /  0.2km/h 6mph /  9.7km/h 71.8% 0.00in /  0mm 499 W/m2
09:29 87.3 °F /  30.7 °C 77.1 °F /  25.1 °C 30.03in /  1016.8hPa NNW 1.6mph /  2.6km/h 6mph /  9.7km/h 71.7% 0.00in /  0mm 513 W/m2
09:34 87.6 °F /  30.9 °C 76.6 °F /  24.8 °C 30.03in /  1016.8hPa NNW 2.2mph /  3.5km/h 6mph /  9.7km/h 69.8% 0.00in /  0mm 531 W/m2
09:39 87.9 °F /  31.1 °C 76.8 °F /  24.9 °C 30.03in /  1016.8hPa NW 0.4mph /  0.6km/h 6mph /  9.7km/h 69.7% 0.00in /  0mm 547 W/m2
09:44 88.4 °F /  31.3 °C 77.3 °F /  25.2 °C 30.03in /  1016.8hPa NW 0.1mph /  0.2km/h 6mph /  9.7km/h 69.9% 0.00in /  0mm 561 W/m2
09:49 88.8 °F /  31.6 °C 77 °F /  25 °C 30.03in /  1016.8hPa NW 0.1mph /  0.2km/h 6mph /  9.7km/h 68.4% 0.00in /  0mm 575 W/m2
09:54 89 °F /  31.7 °C 76.5 °F /  24.7 °C 30.03in /  1016.8hPa NW 1.9mph /  3.1km/h 6mph /  9.7km/h 66.6% 0.00in /  0mm 577 W/m2
09:59 89.1 °F /  31.7 °C 76.3 °F /  24.6 °C 30.03in /  1016.8hPa NW 1.3mph /  2.1km/h 6mph /  9.7km/h 66.2% 0.00in /  0mm 594 W/m2
10:04 89.2 °F /  31.8 °C 76.7 °F /  24.8 °C 30.03in /  1016.8hPa NW 0.1mph /  0.2km/h 6mph /  9.7km/h 66.7% 0.00in /  0mm 608 W/m2
10:09 89.2 °F /  31.8 °C 75.5 °F /  24.2 °C 30.03in /  1016.8hPa North 0.3mph /  0.5km/h 3mph /  4.8km/h 64.1% 0.00in /  0mm 624 W/m2
10:14 88.9 °F /  31.6 °C 75.6 °F /  24.2 °C 30.03in /  1016.8hPa North 0.1mph /  0.2km/h 3mph /  4.8km/h 65% 0.00in /  0mm 638 W/m2
10:19 88.9 °F /  31.6 °C 76.4 °F /  24.7 °C 30.03in /  1016.8hPa North 0.2mph /  0.3km/h 3mph /  4.8km/h 66.7% 0.00in /  0mm 650 W/m2
10:24 89.3 °F /  31.8 °C 76.1 °F /  24.5 °C 30.03in /  1016.8hPa Calm   3mph /  4.8km/h 65.1% 0.00in /  0mm 663 W/m2
10:29 89.8 °F /  32.1 °C 76.1 °F /  24.5 °C 30.03in /  1016.8hPa Calm   3mph /  4.8km/h 64.1% 0.00in /  0mm 670 W/m2
10:34 90.3 °F /  32.4 °C 77.1 °F /  25.1 °C 30.04in /  1017.2hPa Calm   3mph /  4.8km/h 65.4% 0.00in /  0mm 680 W/m2
10:39 90.5 °F /  32.5 °C 75.7 °F /  24.3 °C 30.04in /  1017.2hPa Calm     61.9% 0.00in /  0mm 687 W/m2
10:44 90.8 °F /  32.7 °C 76.3 °F /  24.6 °C 30.04in /  1017.2hPa NNE 0.9mph /  1.4km/h 4mph /  6.4km/h 62.7% 0.00in /  0mm 700 W/m2
10:49 91 °F /  32.8 °C 75.7 °F /  24.3 °C 30.04in /  1017.2hPa NE 1.6mph /  2.6km/h 4mph /  6.4km/h 61.1% 0.00in /  0mm 708 W/m2
10:54 90.8 °F /  32.7 °C 76 °F /  24.4 °C 30.04in /  1017.2hPa ENE 0.4mph /  0.6km/h 4mph /  6.4km/h 62% 0.00in /  0mm 722 W/m2
10:59 91 °F /  32.8 °C 76.4 °F /  24.7 °C 30.04in /  1017.2hPa ENE 0.9mph /  1.4km/h 4mph /  6.4km/h 62.4% 0.00in /  0mm 731 W/m2
11:04 91.3 °F /  32.9 °C 76.3 °F /  24.6 °C 30.04in /  1017.2hPa Calm   4mph /  6.4km/h 61.5% 0.00in /  0mm 737 W/m2
11:09 91.7 °F /  33.2 °C 76.1 °F /  24.5 °C 30.04in /  1017.2hPa ENE 0.4mph /  0.6km/h 3mph /  4.8km/h 60.5% 0.00in /  0mm 751 W/m2
11:14 92.1 °F /  33.4 °C 76.6 °F /  24.8 °C 30.04in /  1017.2hPa ENE 0.1mph /  0.2km/h 3mph /  4.8km/h 60.8% 0.00in /  0mm 754 W/m2
11:19 92.4 °F /  33.6 °C 76.2 °F /  24.6 °C 30.04in /  1017.2hPa ENE 1.8mph /  2.9km/h 5mph /  8km/h 59.4% 0.00in /  0mm 765 W/m2
11:24 91.9 °F /  33.3 °C 75.4 °F /  24.1 °C 30.03in /  1016.8hPa ENE 1.4mph /  2.3km/h 5mph /  8km/h 58.6% 0.00in /  0mm 772 W/m2
11:29 91.7 °F /  33.2 °C 76.5 °F /  24.7 °C 30.03in /  1016.8hPa ENE 0.3mph /  0.5km/h 5mph /  8km/h 61.5% 0.00in /  0mm 779 W/m2
11:34 91.9 °F /  33.3 °C 76.3 °F /  24.6 °C 30.04in /  1017.2hPa ENE 0.3mph /  0.5km/h 5mph /  8km/h 60.5% 0.00in /  0mm 780 W/m2
11:39 92.1 °F /  33.4 °C 76.4 °F /  24.7 °C 30.04in /  1017.2hPa ENE 0.9mph /  1.4km/h 3mph /  4.8km/h 60.4% 0.00in /  0mm 784 W/m2
11:44 92.3 °F /  33.5 °C 77 °F /  25 °C 30.04in /  1017.2hPa ENE 0.1mph /  0.2km/h 3mph /  4.8km/h 61.1% 0.00in /  0mm 786 W/m2
11:49 92.7 °F /  33.7 °C 76.2 °F /  24.6 °C 30.04in /  1017.2hPa ENE 1.2mph /  1.9km/h 4mph /  6.4km/h 58.9% 0.00in /  0mm 789 W/m2
11:54 92.9 °F /  33.8 °C 76.4 °F /  24.7 °C 30.04in /  1017.2hPa ENE 1.6mph /  2.6km/h 6mph /  9.7km/h 58.9% 0.00in /  0mm 798 W/m2
11:59 93 °F /  33.9 °C 76.5 °F /  24.7 °C 30.04in /  1017.2hPa ENE 0.4mph /  0.6km/h 6mph /  9.7km/h 59% 0.00in /  0mm 793 W/m2
12:09 93.2 °F /  34 °C 75.8 °F /  24.3 °C 30.04in /  1017.2hPa NW 1.2mph /  1.9km/h 5mph /  8km/h 57.3% 0.00in /  0mm 206 W/m2
12:14 93 °F /  33.9 °C 76.1 °F /  24.5 °C 30.04in /  1017.2hPa NW 1.3mph /  2.1km/h 5mph /  8km/h 58.1% 0.00in /  0mm 227 W/m2
12:19 92.7 °F /  33.7 °C 75.7 °F /  24.3 °C 30.04in /  1017.2hPa Calm   5mph /  8km/h 57.9% 0.00in /  0mm 227 W/m2
12:24 92.2 °F /  33.4 °C 75 °F /  23.9 °C 30.04in /  1017.2hPa Calm   5mph /  8km/h 57.5% 0.00in /  0mm 163 W/m2
12:29 91.7 °F /  33.2 °C 74.8 °F /  23.8 °C 30.04in /  1017.2hPa NW 0.8mph /  1.3km/h 5mph /  8km/h 57.9% 0.00in /  0mm 243 W/m2
12:34 91.6 °F /  33.1 °C 75.4 °F /  24.1 °C 30.04in /  1017.2hPa NW 0.6mph /  1km/h 5mph /  8km/h 59.3% 0.00in /  0mm 413 W/m2
12:39 91.6 °F /  33.1 °C 74.9 °F /  23.8 °C 30.04in /  1017.2hPa NW 1mph /  1.6km/h 5mph /  8km/h 58.3% 0.00in /  0mm 429 W/m2
12:44 91.7 °F /  33.2 °C 76.2 °F /  24.6 °C 30.05in /  1017.5hPa NW 1.6mph /  2.6km/h 5mph /  8km/h 60.7% 0.00in /  0mm 338 W/m2
12:49 91.6 °F /  33.1 °C 75.7 °F /  24.3 °C 30.05in /  1017.5hPa NW 1.7mph /  2.7km/h 5mph /  8km/h 59.8% 0.00in /  0mm 309 W/m2
12:54 91.4 °F /  33 °C 75.4 °F /  24.1 °C 30.04in /  1017.2hPa NW 0.8mph /  1.3km/h 5mph /  8km/h 59.6% 0.00in /  0mm 295 W/m2
12:59 91.4 °F /  33 °C 76.2 °F /  24.6 °C 30.04in /  1017.2hPa NW 1mph /  1.6km/h 5mph /  8km/h 61.2% 0.00in /  0mm 309 W/m2
13:04 91.3 °F /  32.9 °C 75.3 °F /  24.1 °C 30.04in /  1017.2hPa NW 0.9mph /  1.4km/h 5mph /  8km/h 59.5% 0.00in /  0mm 320 W/m2
13:09 91.4 °F /  33 °C 75.7 °F /  24.3 °C 30.04in /  1017.2hPa NW 0.7mph /  1.1km/h 4mph /  6.4km/h 60.3% 0.00in /  0mm 309 W/m2
13:14 91.3 °F /  32.9 °C 75.6 °F /  24.2 °C 30.04in /  1017.2hPa Calm   4mph /  6.4km/h 60.2% 0.00in /  0mm 306 W/m2
13:19 91.3 °F /  32.9 °C 75.2 °F /  24 °C 30.04in /  1017.2hPa NNW 0.3mph /  0.5km/h 4mph /  6.4km/h 59.4% 0.00in /  0mm 294 W/m2
13:24 91.3 °F /  32.9 °C 75.2 °F /  24 °C 30.04in /  1017.2hPa NNW 0.6mph /  1km/h 4mph /  6.4km/h 59.4% 0.00in /  0mm 269 W/m2
13:29 91.3 °F /  32.9 °C 75.8 °F /  24.3 °C 30.04in /  1017.2hPa NNW 1.3mph /  2.1km/h 4mph /  6.4km/h 60.6% 0.00in /  0mm 278 W/m2
13:34 91.4 °F /  33 °C 75.3 °F /  24.1 °C 30.04in /  1017.2hPa Calm   4mph /  6.4km/h 59.5% 0.00in /  0mm 299 W/m2
13:39 91.4 °F /  33 °C 75.9 °F /  24.4 °C 30.03in /  1016.8hPa NNW 0.5mph /  0.8km/h 3mph /  4.8km/h 60.8% 0.00in /  0mm 302 W/m2
13:44 91.4 °F /  33 °C 75.5 °F /  24.2 °C 30.03in /  1016.8hPa Calm   3mph /  4.8km/h 59.9% 0.00in /  0mm 325 W/m2
13:49 91.4 °F /  33 °C 76.4 °F /  24.7 °C 30.03in /  1016.8hPa Calm   3mph /  4.8km/h 61.8% 0.00in /  0mm 355 W/m2
13:54 91.3 °F /  32.9 °C 75.3 °F /  24.1 °C 30.03in /  1016.8hPa NNW 0.4mph /  0.6km/h 3mph /  4.8km/h 59.6% 0.00in /  0mm 617 W/m2
13:59 91.4 °F /  33 °C 74.5 °F /  23.6 °C 30.03in /  1016.8hPa NNE 1.8mph /  2.9km/h 7mph /  11.3km/h 58% 0.00in /  0mm 445 W/m2
14:04 91.4 °F /  33 °C 74.2 °F /  23.4 °C 30.03in /  1016.8hPa NE 1.2mph /  1.9km/h 7mph /  11.3km/h 57.4% 0.00in /  0mm 909 W/m2
14:09 91.6 °F /  33.1 °C 74 °F /  23.3 °C 30.02in /  1016.5hPa NE 1.4mph /  2.3km/h 4mph /  6.4km/h 56.6% 0.00in /  0mm 909 W/m2
14:14 91.8 °F /  33.2 °C 73.9 °F /  23.3 °C 30.02in /  1016.5hPa NE 0.8mph /  1.3km/h 4mph /  6.4km/h 56% 0.00in /  0mm 907 W/m2
14:19 92.2 °F /  33.4 °C 74.2 °F /  23.4 °C 30.02in /  1016.5hPa Calm   4mph /  6.4km/h 55.9% 0.00in /  0mm 803 W/m2
14:24 92.8 °F /  33.8 °C 74.7 °F /  23.7 °C 30.02in /  1016.5hPa NE 0.3mph /  0.5km/h 4mph /  6.4km/h 55.7% 0.00in /  0mm 788 W/m2
14:29 93.5 °F /  34.2 °C 74.8 °F /  23.8 °C 30.02in /  1016.5hPa NE 2.2mph /  3.5km/h 5mph /  8km/h 54.9% 0.00in /  0mm 770 W/m2
14:34 94 °F /  34.4 °C 74.6 °F /  23.7 °C 30.02in /  1016.5hPa NE 0.2mph /  0.3km/h 5mph /  8km/h 53.5% 0.00in /  0mm 759 W/m2
14:39 94.4 °F /  34.7 °C 75 °F /  23.9 °C 30.01in /  1016.1hPa NE 0.4mph /  0.6km/h 4mph /  6.4km/h 53.6% 0.00in /  0mm 775 W/m2
14:44 94.7 °F /  34.8 °C 74.4 °F /  23.6 °C 30.01in /  1016.1hPa North 2mph /  3.2km/h 6mph /  9.7km/h 52% 0.00in /  0mm 775 W/m2
14:49 94.7 °F /  34.8 °C 73.4 °F /  23 °C 30.01in /  1016.1hPa North 1.8mph /  2.9km/h 6mph /  9.7km/h 50.5% 0.00in /  0mm 768 W/m2
14:54 94.4 °F /  34.7 °C 73.5 °F /  23.1 °C 30.01in /  1016.1hPa North 0.9mph /  1.4km/h 6mph /  9.7km/h 51.1% 0.00in /  0mm 738 W/m2
14:59 94.2 °F /  34.6 °C 72.8 °F /  22.7 °C 30.01in /  1016.1hPa North 1mph /  1.6km/h 6mph /  9.7km/h 50.2% 0.00in /  0mm 738 W/m2
15:04 94.2 °F /  34.6 °C 73.1 °F /  22.8 °C 30.01in /  1016.1hPa North 0.1mph /  0.2km/h 6mph /  9.7km/h 50.7% 0.00in /  0mm 733 W/m2
15:09 93.9 °F /  34.4 °C 72.9 °F /  22.7 °C 30.01in /  1016.1hPa North 0.5mph /  0.8km/h 3mph /  4.8km/h 50.9% 0.00in /  0mm 724 W/m2
15:14 93.6 °F /  34.2 °C 73.3 °F /  22.9 °C 30.01in /  1016.1hPa North 0.3mph /  0.5km/h 3mph /  4.8km/h 52% 0.00in /  0mm 327 W/m2
15:19 93.5 °F /  34.2 °C 74.4 °F /  23.6 °C 30.01in /  1016.1hPa Calm   3mph /  4.8km/h 53.9% 0.00in /  0mm 777 W/m2
15:24 93.6 °F /  34.2 °C 73.1 °F /  22.8 °C 30.01in /  1016.1hPa North 0.9mph /  1.4km/h 3mph /  4.8km/h 51.6% 0.00in /  0mm 765 W/m2
15:29 93.8 °F /  34.3 °C 73.4 °F /  23 °C 30.01in /  1016.1hPa North 1.3mph /  2.1km/h 3mph /  4.8km/h 51.7% 0.00in /  0mm 765 W/m2
15:34 94 °F /  34.4 °C 73.5 °F /  23.1 °C 30.01in /  1016.1hPa North 0.9mph /  1.4km/h 3mph /  4.8km/h 51.8% 0.00in /  0mm 659 W/m2
15:39 94 °F /  34.4 °C 73.9 °F /  23.3 °C 30.01in /  1016.1hPa North 1mph /  1.6km/h 3mph /  4.8km/h 52.4% 0.00in /  0mm 628 W/m2
15:44 94 °F /  34.4 °C 74 °F /  23.3 °C 30.01in /  1016.1hPa North 1.2mph /  1.9km/h 4mph /  6.4km/h 52.4% 0.00in /  0mm 612 W/m2
15:49 94.2 °F /  34.6 °C 73.5 °F /  23.1 °C 30.01in /  1016.1hPa North 0.7mph /  1.1km/h 4mph /  6.4km/h 51.4% 0.00in /  0mm 594 W/m2
15:54 94.3 °F /  34.6 °C 73.3 °F /  22.9 °C 30.01in /  1016.1hPa North 0.6mph /  1km/h 4mph /  6.4km/h 50.8% 0.00in /  0mm 578 W/m2
15:59 94.4 °F /  34.7 °C 73.4 °F /  23 °C 30.01in /  1016.1hPa North 0.8mph /  1.3km/h 4mph /  6.4km/h 50.8% 0.00in /  0mm 561 W/m2
16:09 93.9 °F /  34.4 °C 73.5 °F /  23.1 °C 30.01in /  1016.1hPa North 1.3mph /  2.1km/h 4mph /  6.4km/h 51.8% 0.00in /  0mm 77 W/m2
16:14 93.5 °F /  34.2 °C 72.4 °F /  22.4 °C 30.01in /  1016.1hPa North 1.5mph /  2.4km/h 4mph /  6.4km/h 50.6% 0.00in /  0mm 74 W/m2
16:19 93.3 °F /  34.1 °C 72.4 °F /  22.4 °C 30.01in /  1016.1hPa North 0.7mph /  1.1km/h 4mph /  6.4km/h 50.8% 0.00in /  0mm 69 W/m2
16:24 93.1 °F /  33.9 °C 71.4 °F /  21.9 °C 30.01in /  1016.1hPa North 0.4mph /  0.6km/h 4mph /  6.4km/h 49.5% 0.00in /  0mm 67 W/m2
16:29 92.9 °F /  33.8 °C 72.5 °F /  22.5 °C 30.00in /  1015.8hPa North 0.8mph /  1.3km/h 4mph /  6.4km/h 51.7% 0.00in /  0mm 70 W/m2
16:34 92.8 °F /  33.8 °C 72.4 °F /  22.4 °C 30.00in /  1015.8hPa North 0.4mph /  0.6km/h 4mph /  6.4km/h 51.7% 0.00in /  0mm 74 W/m2
16:39 92.6 °F /  33.7 °C 72.5 °F /  22.5 °C 30.00in /  1015.8hPa North 1mph /  1.6km/h 3mph /  4.8km/h 52.1% 0.00in /  0mm 83 W/m2
16:44 92.4 °F /  33.6 °C 73 °F /  22.8 °C 30.01in /  1016.1hPa North 1.6mph /  2.6km/h 4mph /  6.4km/h 53.4% 0.00in /  0mm 83 W/m2
16:49 92.2 °F /  33.4 °C 73 °F /  22.8 °C 30.01in /  1016.1hPa NNW 1.2mph /  1.9km/h 6mph /  9.7km/h 53.7% 0.00in /  0mm 74 W/m2
16:54 92 °F /  33.3 °C 72.8 °F /  22.7 °C 30.01in /  1016.1hPa NNW 0.2mph /  0.3km/h 6mph /  9.7km/h 53.7% 0.00in /  0mm 79 W/m2
16:59 91.7 °F /  33.2 °C 72.9 °F /  22.7 °C 30.01in /  1016.1hPa NNW 0.2mph /  0.3km/h 6mph /  9.7km/h 54.4% 0.00in /  0mm 77 W/m2
17:04 91.4 °F /  33 °C 72.7 °F /  22.6 °C 30.01in /  1016.1hPa NNW 1mph /  1.6km/h 6mph /  9.7km/h 54.4% 0.00in /  0mm 72 W/m2
17:09 91.1 °F /  32.8 °C 73.3 °F /  22.9 °C 30.01in /  1016.1hPa NNE 0.6mph /  1km/h 6mph /  9.7km/h 56.1% 0.00in /  0mm 72 W/m2
17:14 90.8 °F /  32.7 °C 73.6 °F /  23.1 °C 30.01in /  1016.1hPa NE 0.1mph /  0.2km/h 6mph /  9.7km/h 57.2% 0.00in /  0mm 97 W/m2
17:19 90.6 °F /  32.6 °C 73.9 °F /  23.3 °C 30.01in /  1016.1hPa NE 0.2mph /  0.3km/h 6mph /  9.7km/h 58.2% 0.00in /  0mm 107 W/m2
17:24 90.4 °F /  32.4 °C 74.2 °F /  23.4 °C 30.01in /  1016.1hPa NE 1.6mph /  2.6km/h 6mph /  9.7km/h 59.2% 0.00in /  0mm 104 W/m2
17:29 90.2 °F /  32.3 °C 73.6 °F /  23.1 °C 30.01in /  1016.1hPa NE 0.2mph /  0.3km/h 6mph /  9.7km/h 58.2% 0.00in /  0mm 98 W/m2
17:34 90.2 °F /  32.3 °C 73.9 °F /  23.3 °C 30.01in /  1016.1hPa NE 0.2mph /  0.3km/h 6mph /  9.7km/h 59% 0.00in /  0mm 77 W/m2
17:39 90.1 °F /  32.3 °C 74.4 °F /  23.6 °C 30.01in /  1016.1hPa NNE 0.6mph /  1km/h 6mph /  9.7km/h 60.2% 0.00in /  0mm 77 W/m2
17:44 90 °F /  32.2 °C 75 °F /  23.9 °C 30.01in /  1016.1hPa NW 0.8mph /  1.3km/h 9mph /  14.5km/h 61.4% 0.00in /  0mm 83 W/m2
17:49 89.7 °F /  32.1 °C 74.6 °F /  23.7 °C 30.02in /  1016.5hPa NNW 2.5mph /  4km/h 9mph /  14.5km/h 61.3% 0.00in /  0mm 90 W/m2
17:54 89.3 °F /  31.8 °C 74.7 °F /  23.7 °C 30.02in /  1016.5hPa NW 2.3mph /  3.7km/h 9mph /  14.5km/h 62.4% 0.00in /  0mm 88 W/m2
17:59 88.9 °F /  31.6 °C 74.6 °F /  23.7 °C 30.02in /  1016.5hPa NW 0.4mph /  0.6km/h 9mph /  14.5km/h 62.8% 0.00in /  0mm 60 W/m2
18:04 88.7 °F /  31.5 °C 74.5 °F /  23.6 °C 30.02in /  1016.5hPa NW 0.5mph /  0.8km/h 9mph /  14.5km/h 63.2% 0.00in /  0mm 40 W/m2
18:09 88.3 °F /  31.3 °C 74.2 °F /  23.4 °C 30.03in /  1016.8hPa NNW 2.1mph /  3.4km/h 7mph /  11.3km/h 63% 0.00in /  0mm 32 W/m2
18:14 87.7 °F /  30.9 °C 73 °F /  22.8 °C 30.03in /  1016.8hPa NNW 3mph /  4.8km/h 14mph /  22.5km/h 61.9% 0.00in /  0mm 39 W/m2
18:19 86.8 °F /  30.4 °C 71.8 °F /  22.1 °C 30.03in /  1016.8hPa North 0.7mph /  1.1km/h 14mph /  22.5km/h 61.2% 0.00in /  0mm 44 W/m2
18:24 86 °F /  30 °C 72.1 °F /  22.3 °C 30.03in /  1016.8hPa NW 3.9mph /  6.3km/h 14mph /  22.5km/h 63.2% 0.00in /  0mm 44 W/m2
18:29 85.1 °F /  29.5 °C 71.6 °F /  22 °C 30.03in /  1016.8hPa NW 3.1mph /  5km/h 14mph /  22.5km/h 64.2% 0.00in /  0mm 35 W/m2
18:34 84.3 °F /  29.1 °C 71.3 °F /  21.8 °C 30.03in /  1016.8hPa NNW 2.1mph /  3.4km/h 14mph /  22.5km/h 65.1% 0.00in /  0mm 28 W/m2
18:39 83.7 °F /  28.7 °C 71.1 °F /  21.7 °C 30.03in /  1016.8hPa NW 1.2mph /  1.9km/h 8mph /  12.9km/h 65.8% 0.00in /  0mm 25 W/m2
18:44 83.2 °F /  28.4 °C 71 °F /  21.7 °C 30.03in /  1016.8hPa NNW 0.6mph /  1km/h 8mph /  12.9km/h 66.7% 0.00in /  0mm 26 W/m2
18:49 82.9 °F /  28.3 °C 70.9 °F /  21.6 °C 30.03in /  1016.8hPa NNW 0.5mph /  0.8km/h 8mph /  12.9km/h 67.3% 0.00in /  0mm 26 W/m2
18:54 82.6 °F /  28.1 °C 70.5 °F /  21.4 °C 30.03in /  1016.8hPa NNW 1.5mph /  2.4km/h 8mph /  12.9km/h 67% 0.00in /  0mm 26 W/m2
18:59 82.3 °F /  27.9 °C 70.3 °F /  21.3 °C 30.03in /  1016.8hPa North 0.7mph /  1.1km/h 8mph /  12.9km/h 67% 0.00in /  0mm 23 W/m2
19:04 82.1 °F /  27.8 °C 70.2 °F /  21.2 °C 30.03in /  1016.8hPa Calm   8mph /  12.9km/h 67.2% 0.00in /  0mm 14 W/m2
19:09 82 °F /  27.8 °C 69.9 °F /  21.1 °C 30.03in /  1016.8hPa Calm     67% 0.00in /  0mm 9 W/m2
19:14 81.8 °F /  27.7 °C 70.2 °F /  21.2 °C 30.05in /  1017.5hPa Calm     67.8% 0.00in /  0mm 0 W/m2
19:19 81.7 °F /  27.6 °C 69.9 °F /  21.1 °C 30.05in /  1017.5hPa Calm     67.5% 0.00in /  0mm 0 W/m2
19:24 81.6 °F /  27.6 °C 69.7 °F /  20.9 °C 30.05in /  1017.5hPa Calm     67.3% 0.00in /  0mm 0 W/m2
19:29 81.6 °F /  27.6 °C 70 °F /  21.1 °C 30.05in /  1017.5hPa Calm     68% 0.00in /  0mm 0 W/m2
19:34 81.4 °F /  27.4 °C 69.9 °F /  21.1 °C 30.05in /  1017.5hPa Calm     68% 0.00in /  0mm 0 W/m2
19:39 81.3 °F /  27.4 °C 69.9 °F /  21.1 °C 30.05in /  1017.5hPa Calm     68.2% 0.00in /  0mm 0 W/m2
19:44 81.2 °F /  27.3 °C 70.1 °F /  21.2 °C 30.05in /  1017.5hPa Calm     69% 0.00in /  0mm 0 W/m2
19:49 81.1 °F /  27.3 °C 70.2 °F /  21.2 °C 30.05in /  1017.5hPa Calm     69.5% 0.00in /  0mm 0 W/m2
19:54 81 °F /  27.2 °C 70.3 °F /  21.3 °C 30.06in /  1017.8hPa Calm     70% 0.00in /  0mm 0 W/m2
19:59 80.8 °F /  27.1 °C 70.3 °F /  21.3 °C 30.06in /  1017.8hPa Calm     70.5% 0.00in /  0mm 0 W/m2
20:00 80.6 °F /  27 °C 70.3 °F /  21.3 °C 30.05in /  1017.5hPa Calm     71% 0.00in /  0mm 0 W/m2
20:09 80.4 °F /  26.9 °C 70.7 °F /  21.5 °C 30.06in /  1017.8hPa Calm     72.2% 0.00in /  0mm 0 W/m2
20:14 80.3 °F /  26.8 °C 70.6 °F /  21.4 °C 30.06in /  1017.8hPa Calm     72.4% 0.00in /  0mm 0 W/m2
20:19 80.3 °F /  26.8 °C 70.8 °F /  21.6 °C 30.06in /  1017.8hPa Calm     72.9% 0.00in /  0mm 0 W/m2
20:24 80.2 °F /  26.8 °C 70.8 °F /  21.6 °C 30.07in /  1018.2hPa Calm     73% 0.00in /  0mm 0 W/m2
20:29 80.1 °F /  26.7 °C 70.9 °F /  21.6 °C 30.07in /  1018.2hPa NNE 0.1mph /  0.2km/h 3mph /  4.8km/h 73.5% 0.00in /  0mm 0 W/m2
20:34 80 °F /  26.7 °C 71 °F /  21.7 °C 30.07in /  1018.2hPa North 0.1mph /  0.2km/h 3mph /  4.8km/h 74% 0.00in /  0mm 0 W/m2
20:39 79.9 °F /  26.6 °C 71.1 °F /  21.7 °C 30.07in /  1018.2hPa Calm   2mph /  3.2km/h 74.6% 0.00in /  0mm 0 W/m2
20:44 79.8 °F /  26.6 °C 71.2 °F /  21.8 °C 30.07in /  1018.2hPa North 0.4mph /  0.6km/h 4mph /  6.4km/h 75% 0.00in /  0mm 0 W/m2
20:49 79.8 °F /  26.6 °C 71.5 °F /  21.9 °C 30.08in /  1018.5hPa North 0.5mph /  0.8km/h 4mph /  6.4km/h 75.9% 0.00in /  0mm 0 W/m2
20:54 79.7 °F /  26.5 °C 71.4 °F /  21.9 °C 30.08in /  1018.5hPa Calm   4mph /  6.4km/h 76% 0.00in /  0mm 0 W/m2
20:59 79.5 °F /  26.4 °C 71.3 °F /  21.8 °C 30.08in /  1018.5hPa Calm   4mph /  6.4km/h 76.2% 0.00in /  0mm 0 W/m2
21:04 79.3 °F /  26.3 °C 71.5 °F /  21.9 °C 30.09in /  1018.8hPa Calm   4mph /  6.4km/h 77% 0.00in /  0mm 0 W/m2
21:09 79.2 °F /  26.2 °C 71.4 °F /  21.9 °C 30.09in /  1018.8hPa Calm     77% 0.00in /  0mm 0 W/m2
21:14 79.1 °F /  26.2 °C 71.5 °F /  21.9 °C 30.09in /  1018.8hPa Calm     77.8% 0.00in /  0mm 0 W/m2
21:19 78.9 °F /  26.1 °C 71.3 °F /  21.8 °C 30.09in /  1018.8hPa North 0.2mph /  0.3km/h 4mph /  6.4km/h 77.5% 0.00in /  0mm 0 W/m2
21:24 78.8 °F /  26 °C 71.2 °F /  21.8 °C 30.09in /  1018.8hPa North 0.3mph /  0.5km/h 5mph /  8km/h 77.5% 0.00in /  0mm 0 W/m2
21:29 78.8 °F /  26 °C 71.2 °F /  21.8 °C 30.09in /  1018.8hPa North 0.3mph /  0.5km/h 5mph /  8km/h 77.7% 0.00in /  0mm 0 W/m2
21:34 78.7 °F /  25.9 °C 71.3 °F /  21.8 °C 30.09in /  1018.8hPa Calm   5mph /  8km/h 78% 0.00in /  0mm 0 W/m2
21:39 78.6 °F /  25.9 °C 71.2 °F /  21.8 °C 30.09in /  1018.8hPa Calm     78% 0.00in /  0mm 0 W/m2
21:44 78.5 °F /  25.8 °C 71.1 °F /  21.7 °C 30.09in /  1018.8hPa North 0.1mph /  0.2km/h 3mph /  4.8km/h 78% 0.00in /  0mm 0 W/m2
21:49 78.5 °F /  25.8 °C 71.1 °F /  21.7 °C 30.09in /  1018.8hPa Calm   3mph /  4.8km/h 78% 0.00in /  0mm 0 W/m2
21:54 78.4 °F /  25.8 °C 71 °F /  21.7 °C 30.09in /  1018.8hPa Calm   3mph /  4.8km/h 78% 0.00in /  0mm 0 W/m2
21:59 78.4 °F /  25.8 °C 71 °F /  21.7 °C 30.09in /  1018.8hPa Calm   3mph /  4.8km/h 78.2% 0.00in /  0mm 0 W/m2
22:04 78.4 °F /  25.8 °C 71.3 °F /  21.8 °C 30.10in /  1019.2hPa Calm   3mph /  4.8km/h 79% 0.00in /  0mm 0 W/m2
22:09 78.4 °F /  25.8 °C 71.3 °F /  21.8 °C 30.10in /  1019.2hPa Calm     79% 0.00in /  0mm 0 W/m2
22:14 78.3 °F /  25.7 °C 71.3 °F /  21.8 °C 30.09in /  1018.8hPa NNE 0.1mph /  0.2km/h 1mph /  1.6km/h 79% 0.00in /  0mm 0 W/m2
22:19 78.2 °F /  25.7 °C 71.2 °F /  21.8 °C 30.09in /  1018.8hPa NNE 0.3mph /  0.5km/h 5mph /  8km/h 79% 0.00in /  0mm 0 W/m2
22:24 78.2 °F /  25.7 °C 71.2 °F /  21.8 °C 30.09in /  1018.8hPa Calm   5mph /  8km/h 79.2% 0.00in /  0mm 0 W/m2
22:29 78.1 °F /  25.6 °C 71.4 °F /  21.9 °C 30.09in /  1018.8hPa Calm   5mph /  8km/h 80% 0.00in /  0mm 0 W/m2
22:34 78 °F /  25.6 °C 71.4 °F /  21.9 °C 30.10in /  1019.2hPa Calm   5mph /  8km/h 80% 0.00in /  0mm 0 W/m2
22:39 78 °F /  25.6 °C 71.6 °F /  22 °C 30.10in /  1019.2hPa Calm     80.7% 0.00in /  0mm 0 W/m2
22:44 77.9 °F /  25.5 °C 71.6 °F /  22 °C 30.10in /  1019.2hPa NNE 0.2mph /  0.3km/h 5mph /  8km/h 81% 0.00in /  0mm 0 W/m2
22:49 77.8 °F /  25.4 °C 71.8 °F /  22.1 °C 30.10in /  1019.2hPa Calm   5mph /  8km/h 81.6% 0.00in /  0mm 0 W/m2
22:54 77.8 °F /  25.4 °C 71.9 °F /  22.2 °C 30.10in /  1019.2hPa North 0.3mph /  0.5km/h 6mph /  9.7km/h 82% 0.00in /  0mm 0 W/m2
22:59 77.8 °F /  25.4 °C 71.9 °F /  22.2 °C 30.10in /  1019.2hPa North 0.1mph /  0.2km/h 6mph /  9.7km/h 82% 0.00in /  0mm 0 W/m2
23:04 77.8 °F /  25.4 °C 72.2 °F /  22.3 °C 30.10in /  1019.2hPa Calm   6mph /  9.7km/h 82.9% 0.00in /  0mm 0 W/m2
23:09 77.7 °F /  25.4 °C 72.2 °F /  22.3 °C 30.10in /  1019.2hPa Calm     83% 0.00in /  0mm 0 W/m2
23:14 77.7 °F /  25.4 °C 72.1 °F /  22.3 °C 30.10in /  1019.2hPa Calm     83% 0.00in /  0mm 0 W/m2
23:19 77.7 °F /  25.4 °C 72.3 °F /  22.4 °C 30.10in /  1019.2hPa Calm   1mph /  1.6km/h 83.4% 0.00in /  0mm 0 W/m2
23:24 77.6 °F /  25.3 °C 72.4 °F /  22.4 °C 30.10in /  1019.2hPa Calm   1mph /  1.6km/h 84% 0.00in /  0mm 0 W/m2
23:29 77.6 °F /  25.3 °C 72.4 °F /  22.4 °C 30.10in /  1019.2hPa North 0.2mph /  0.3km/h 5mph /  8km/h 84% 0.00in /  0mm 0 W/m2
23:34 77.5 °F /  25.3 °C 72.3 °F /  22.4 °C 30.10in /  1019.2hPa NNW 0.2mph /  0.3km/h 5mph /  8km/h 84% 0.00in /  0mm 0 W/m2
23:39 77.5 °F /  25.3 °C 72.3 °F /  22.4 °C 30.10in /  1019.2hPa Calm   4mph /  6.4km/h 84% 0.00in /  0mm 0 W/m2
23:44 77.5 °F /  25.3 °C 72.5 °F /  22.5 °C 30.10in /  1019.2hPa Calm   4mph /  6.4km/h 84.5% 0.00in /  0mm 0 W/m2
23:49 77.5 °F /  25.3 °C 72.6 °F /  22.6 °C 30.11in /  1019.5hPa East 0.1mph /  0.2km/h 4mph /  6.4km/h 85% 0.00in /  0mm 0 W/m2
23:54 77.5 °F /  25.3 °C 72.6 °F /  22.6 °C 30.11in /  1019.5hPa ENE 0.1mph /  0.2km/h 4mph /  6.4km/h 85% 0.00in /  0mm 0 W/m2
23:59 77.5 °F /  25.3 °C 72.6 °F /  22.6 °C 30.12in /  1019.9hPa NW 0.6mph /  1km/h 5mph /  8km/h 85% 0.00in /  0mm 0 W/m2
Hartford County Weather
Compliments of Weather Underground - 2 mb